createdAt,value
2022-12-23T00:01:45.054Z,7.00
2022-12-23T00:04:13.059Z,6.28
2022-12-23T00:06:42.537Z,6.22
2022-12-23T00:09:10.467Z,6.35
2022-12-23T00:11:58.375Z,6.82
2022-12-23T00:14:44.154Z,7.15
2022-12-23T00:17:22.045Z,5.90
2022-12-23T00:19:50.722Z,6.40
2022-12-23T00:22:19.915Z,6.30
2022-12-23T00:24:47.777Z,6.28
2022-12-23T00:27:15.662Z,6.28
2022-12-23T00:29:44.403Z,6.10
2022-12-23T00:32:12.321Z,5.90
2022-12-23T00:34:40.246Z,6.15
2022-12-23T00:37:08.130Z,6.00
2022-12-23T00:39:55.463Z,6.35
2022-12-23T00:42:40.614Z,6.38
2022-12-23T00:45:16.377Z,5.85
2022-12-23T00:48:02.039Z,5.97
2022-12-23T00:50:30.088Z,5.82
2022-12-23T00:52:57.979Z,6.10
2022-12-23T00:55:27.250Z,5.65
2022-12-23T00:57:55.117Z,5.60
2022-12-23T01:00:43.201Z,5.70
2022-12-23T01:03:26.881Z,5.88
2022-12-23T01:05:58.817Z,5.72
2022-12-23T01:08:26.729Z,5.53
2022-12-23T01:10:55.945Z,5.47
2022-12-23T01:13:23.855Z,5.60
2022-12-23T01:15:51.748Z,5.30
2022-12-23T01:18:19.668Z,5.43
2022-12-23T01:20:47.520Z,5.35
2022-12-23T01:23:15.424Z,5.72
2022-12-23T01:25:43.311Z,5.53
2022-12-23T01:28:12.583Z,5.35
2022-12-23T01:30:40.463Z,5.43
2022-12-23T01:33:08.379Z,5.40
2022-12-23T01:35:36.270Z,4.93
2022-12-23T01:38:04.156Z,5.32
2022-12-23T01:40:35.970Z,5.50
2022-12-23T01:43:02.867Z,5.00
2022-12-23T01:45:32.949Z,5.28
2022-12-23T01:48:02.298Z,4.97
2022-12-23T01:50:31.973Z,4.93
2022-12-23T01:53:07.281Z,4.93
2022-12-23T01:55:37.964Z,5.05
2022-12-23T01:58:08.536Z,4.70
2022-12-23T02:00:55.479Z,5.35
2022-12-23T02:03:41.002Z,4.75
2022-12-23T02:06:26.897Z,4.80
2022-12-23T02:09:12.119Z,5.00
2022-12-23T02:11:48.806Z,4.68
2022-12-23T02:14:39.891Z,4.95
2022-12-23T02:17:11.252Z,4.78
2022-12-23T02:19:52.982Z,4.68
2022-12-23T02:22:31.188Z,5.10
2022-12-23T02:25:25.043Z,4.60
2022-12-23T02:28:00.332Z,5.22
2022-12-23T02:30:44.363Z,4.75
2022-12-23T02:33:29.807Z,4.90
2022-12-23T02:36:00.709Z,4.85
2022-12-23T02:38:30.525Z,4.70
2022-12-23T02:41:03.558Z,4.65
2022-12-23T02:43:35.857Z,4.70
2022-12-23T02:46:07.432Z,4.57
2022-12-23T02:48:36.913Z,4.68
2022-12-23T02:51:05.005Z,4.45
2022-12-23T02:53:34.777Z,4.78
2022-12-23T02:56:02.989Z,4.32
2022-12-23T02:58:36.821Z,4.35
2022-12-23T03:01:07.073Z,4.43
2022-12-23T03:03:35.163Z,4.50
2022-12-23T03:06:03.105Z,4.40
2022-12-23T03:08:33.262Z,4.40
2022-12-23T03:11:04.563Z,4.30
2022-12-23T03:13:49.740Z,4.50
2022-12-23T03:16:22.777Z,4.18
2022-12-23T03:19:00.173Z,4.60
2022-12-23T03:21:31.554Z,4.75
2022-12-23T03:24:03.101Z,4.32
2022-12-23T03:26:33.436Z,4.45
2022-12-23T03:29:02.719Z,4.20
2022-12-23T03:31:32.343Z,4.32
2022-12-23T03:34:01.495Z,4.50
2022-12-23T03:36:31.069Z,4.55
2022-12-23T03:38:58.971Z,4.32
2022-12-23T03:41:34.500Z,4.40
2022-12-23T03:44:04.069Z,4.47
2022-12-23T03:46:35.702Z,4.22
2022-12-23T03:49:04.813Z,4.32
2022-12-23T03:51:34.036Z,4.70
2022-12-23T03:54:04.237Z,4.45
2022-12-23T03:56:33.985Z,4.30
2022-12-23T03:59:03.020Z,4.03
2022-12-23T04:01:39.016Z,4.03
2022-12-23T04:04:09.782Z,4.03
2022-12-23T04:06:40.873Z,3.80
2022-12-23T04:09:08.789Z,4.10
2022-12-23T04:11:36.803Z,3.88
2022-12-23T04:14:04.730Z,3.78
2022-12-23T04:16:34.000Z,4.03
2022-12-23T04:19:01.891Z,4.20
2022-12-23T04:21:30.063Z,3.65
2022-12-23T04:23:57.947Z,3.92
2022-12-23T04:26:25.822Z,4.10
2022-12-23T04:28:53.695Z,3.72
2022-12-23T04:31:21.644Z,3.85
2022-12-23T04:33:51.023Z,3.80
2022-12-23T04:36:18.926Z,4.00
2022-12-23T04:38:46.802Z,4.05
2022-12-23T04:41:14.687Z,3.90
2022-12-23T04:43:43.665Z,3.80
2022-12-23T04:46:14.431Z,3.40
2022-12-23T04:48:42.502Z,3.88
2022-12-23T04:51:11.704Z,3.95
2022-12-23T04:53:39.594Z,3.47
2022-12-23T04:56:07.631Z,3.17
2022-12-23T04:58:35.546Z,3.58
2022-12-23T05:01:03.754Z,3.40
2022-12-23T05:03:31.799Z,3.30
2022-12-23T05:05:59.808Z,3.53
2022-12-23T05:08:29.048Z,3.58
2022-12-23T05:10:56.941Z,3.55
2022-12-23T05:13:24.817Z,3.42
2022-12-23T05:15:53.534Z,3.35
2022-12-23T05:18:21.652Z,3.63
2022-12-23T05:20:49.929Z,3.55
2022-12-23T05:23:17.827Z,3.58
2022-12-23T05:25:51.201Z,3.58
2022-12-23T05:28:19.162Z,3.70
2022-12-23T05:30:47.054Z,3.40
2022-12-23T05:33:15.158Z,3.40
2022-12-23T05:35:43.051Z,3.05
2022-12-23T05:38:10.911Z,3.58
2022-12-23T05:40:38.824Z,3.55
2022-12-23T05:43:08.187Z,3.25
2022-12-23T05:45:36.355Z,3.13
2022-12-23T05:48:04.327Z,3.10
2022-12-23T05:50:32.196Z,3.17
2022-12-23T05:53:02.811Z,3.20
2022-12-23T05:55:30.662Z,3.00
2022-12-23T05:57:58.567Z,3.15
2022-12-23T06:00:27.755Z,3.50
2022-12-23T06:02:55.828Z,3.20
2022-12-23T06:05:23.792Z,3.50
2022-12-23T06:07:51.662Z,3.50
2022-12-23T06:10:19.653Z,3.30
2022-12-23T06:12:47.543Z,3.05
2022-12-23T06:15:15.599Z,3.20
2022-12-23T06:17:44.957Z,3.35
2022-12-23T06:20:20.052Z,3.30
2022-12-23T06:22:48.767Z,3.10
2022-12-23T06:25:16.722Z,3.15
2022-12-23T06:27:44.585Z,3.05
2022-12-23T06:30:12.636Z,2.83
2022-12-23T06:32:40.840Z,3.03
2022-12-23T06:35:10.664Z,3.15
2022-12-23T06:37:38.550Z,2.97
2022-12-23T06:40:07.678Z,2.97
2022-12-23T06:42:35.550Z,3.10
2022-12-23T06:45:03.474Z,3.00
2022-12-23T06:47:31.385Z,3.10
2022-12-23T06:49:59.234Z,2.80
2022-12-23T06:52:28.510Z,3.30
2022-12-23T06:54:56.373Z,2.78
2022-12-23T06:57:24.234Z,2.65
2022-12-23T06:59:52.112Z,2.67
2022-12-23T07:02:20.174Z,2.80
2022-12-23T07:04:48.238Z,2.97
2022-12-23T07:07:16.098Z,2.83
2022-12-23T07:09:45.327Z,2.92
2022-12-23T07:12:13.193Z,2.67
2022-12-23T07:14:41.072Z,2.90
2022-12-23T07:17:09.006Z,2.90
2022-12-23T07:19:36.962Z,2.90
2022-12-23T07:22:04.843Z,2.70
2022-12-23T07:24:32.731Z,2.88
2022-12-23T07:27:02.023Z,2.70
2022-12-23T07:29:29.879Z,2.50
2022-12-23T07:31:57.829Z,2.55
2022-12-23T07:34:25.757Z,2.80
2022-12-23T07:36:53.932Z,2.80
2022-12-23T07:39:21.879Z,3.00
2022-12-23T07:41:59.043Z,2.80
2022-12-23T07:44:38.555Z,2.60
2022-12-23T07:47:06.523Z,2.85
2022-12-23T07:49:34.423Z,2.50
2022-12-23T07:52:02.354Z,2.47
2022-12-23T07:54:30.218Z,2.90
2022-12-23T07:56:58.222Z,2.63
2022-12-23T07:59:26.835Z,2.53
2022-12-23T08:01:56.200Z,2.40
2022-12-23T08:04:24.222Z,2.50
2022-12-23T08:06:52.198Z,2.50
2022-12-23T08:09:20.211Z,2.50
2022-12-23T08:11:48.246Z,2.65
2022-12-23T08:14:16.130Z,2.50
2022-12-23T08:16:44.583Z,2.35
2022-12-23T08:19:14.014Z,2.50
2022-12-23T08:21:41.935Z,2.50
2022-12-23T08:24:10.207Z,2.45
2022-12-23T08:26:38.095Z,2.50
2022-12-23T08:29:05.995Z,2.58
2022-12-23T08:31:33.999Z,2.40
2022-12-23T08:34:01.954Z,2.97
2022-12-23T08:36:32.721Z,2.40
2022-12-23T08:39:02.362Z,2.60
2022-12-23T08:41:31.246Z,2.50
2022-12-23T08:43:59.275Z,2.60
2022-12-23T08:46:27.323Z,2.63
2022-12-23T08:48:55.589Z,2.75
2022-12-23T08:51:24.055Z,2.60
2022-12-23T08:53:59.872Z,5.70
2022-12-23T08:56:29.677Z,6.90
2022-12-23T08:58:57.671Z,5.78
2022-12-23T09:01:26.875Z,8.02
2022-12-23T09:03:54.997Z,7.13
2022-12-23T09:06:29.144Z,8.10
2022-12-23T09:08:59.521Z,7.20
2022-12-23T09:11:28.355Z,7.55
2022-12-23T09:13:56.333Z,6.90
2022-12-23T09:16:24.366Z,8.05
2022-12-23T09:18:52.268Z,7.45
2022-12-23T09:21:21.309Z,7.65
2022-12-23T09:23:49.256Z,6.40
2022-12-23T09:26:20.605Z,7.50
2022-12-23T09:28:48.580Z,8.05
2022-12-23T09:31:16.603Z,6.60
2022-12-23T09:33:46.876Z,7.55
2022-12-23T09:36:14.784Z,6.80
2022-12-23T09:38:42.736Z,6.35
2022-12-23T09:41:29.549Z,6.70
2022-12-23T09:44:00.995Z,5.78
2022-12-23T09:46:29.392Z,5.65
2022-12-23T09:49:18.400Z,6.38
2022-12-23T09:51:46.614Z,6.30
2022-12-23T09:54:17.420Z,5.93
2022-12-23T09:56:49.306Z,5.95
2022-12-23T09:59:23.935Z,5.00
2022-12-23T10:01:55.751Z,5.72
2022-12-23T10:04:48.605Z,5.40
2022-12-23T10:07:29.723Z,5.78
2022-12-23T10:09:58.083Z,5.65
2022-12-23T10:12:39.134Z,6.25
2022-12-23T10:15:16.911Z,5.60
2022-12-23T10:17:44.781Z,6.32
2022-12-23T10:20:18.403Z,6.80
2022-12-23T10:22:46.506Z,6.78
2022-12-23T10:25:16.117Z,6.70
2022-12-23T10:27:46.775Z,7.35
2022-12-23T10:30:42.466Z,6.60
2022-12-23T10:33:05.969Z,6.60
2022-12-23T10:35:41.938Z,6.93
2022-12-23T10:38:38.653Z,6.85
2022-12-23T10:41:10.016Z,6.78
2022-12-23T10:43:46.948Z,6.28
2022-12-23T10:46:18.924Z,6.32
2022-12-23T10:48:52.274Z,7.35
2022-12-23T10:51:22.239Z,6.35
2022-12-23T10:53:51.543Z,6.18
2022-12-23T10:56:19.685Z,6.35
2022-12-23T10:58:51.749Z,6.53
2022-12-23T11:01:26.673Z,8.40
2022-12-23T11:03:59.115Z,9.65
2022-12-23T11:06:30.252Z,9.50
2022-12-23T11:09:04.383Z,8.80
2022-12-23T11:11:53.511Z,9.60
2022-12-23T11:14:38.669Z,8.75
2022-12-23T11:17:07.052Z,8.05
2022-12-23T11:19:34.942Z,8.98
2022-12-23T11:22:03.107Z,8.57
2022-12-23T11:24:35.417Z,9.23
2022-12-23T11:27:05.397Z,9.13
2022-12-23T11:29:35.282Z,9.48
2022-12-23T11:32:03.343Z,8.60
2022-12-23T11:34:34.014Z,8.40
2022-12-23T11:37:07.181Z,8.77
2022-12-23T11:39:35.996Z,8.30
2022-12-23T11:42:07.367Z,8.13
2022-12-23T11:44:39.368Z,8.05
2022-12-23T11:47:35.389Z,7.82
2022-12-23T11:50:05.323Z,7.95
2022-12-23T11:52:33.538Z,7.85
2022-12-23T11:55:02.244Z,7.75
2022-12-23T11:57:34.798Z,7.65
2022-12-23T12:00:05.801Z,7.68
2022-12-23T12:02:36.390Z,7.65
2022-12-23T12:05:06.646Z,7.35
2022-12-23T12:07:34.538Z,7.35
2022-12-23T12:10:02.488Z,7.47
2022-12-23T12:12:30.484Z,6.93
2022-12-23T12:14:59.151Z,6.72
2022-12-23T12:17:33.397Z,6.70
2022-12-23T12:20:05.711Z,6.85
2022-12-23T12:22:37.667Z,6.40
2022-12-23T12:25:12.100Z,6.57
2022-12-23T12:27:40.263Z,6.50
2022-12-23T12:30:12.258Z,5.90
2022-12-23T12:32:46.852Z,6.00
2022-12-23T12:35:16.154Z,5.93
2022-12-23T12:37:46.065Z,6.05
2022-12-23T12:40:20.657Z,6.30
2022-12-23T12:42:50.466Z,6.22
2022-12-23T12:45:20.952Z,5.07
2022-12-23T12:48:02.181Z,6.07
2022-12-23T12:50:34.439Z,5.78
2022-12-23T12:53:05.077Z,5.47
2022-12-23T12:55:33.898Z,5.57
2022-12-23T12:58:02.700Z,5.70
2022-12-23T13:00:30.681Z,5.55
2022-12-23T13:03:27.350Z,5.30
2022-12-23T13:06:05.693Z,5.25
2022-12-23T13:08:57.515Z,5.57
2022-12-23T13:11:28.945Z,5.13
2022-12-23T13:13:59.339Z,5.50
2022-12-23T13:16:32.769Z,5.10
2022-12-23T13:19:06.089Z,5.25
2022-12-23T13:21:38.486Z,5.55
2022-12-23T13:24:12.965Z,5.40
2022-12-23T13:26:44.553Z,5.70
2022-12-23T13:29:31.572Z,4.97
2022-12-23T13:32:02.028Z,5.30
2022-12-23T13:34:36.838Z,5.30
2022-12-23T13:37:09.839Z,5.55
2022-12-23T13:39:44.325Z,5.30
2022-12-23T13:42:14.494Z,5.47
2022-12-23T13:44:42.327Z,5.25
2022-12-23T13:47:13.439Z,5.65
2022-12-23T13:49:51.719Z,5.93
2022-12-23T13:52:24.639Z,5.28
2022-12-23T13:54:55.712Z,5.05
2022-12-23T13:57:32.973Z,5.13
2022-12-23T14:00:05.817Z,5.47
2022-12-23T14:02:42.595Z,4.75
2022-12-23T14:05:33.543Z,5.28
2022-12-23T14:08:02.151Z,5.18
2022-12-23T14:10:30.092Z,5.30
2022-12-23T14:13:05.873Z,5.57
2022-12-23T14:15:49.990Z,5.03
2022-12-23T14:18:30.080Z,5.40
2022-12-23T14:21:06.213Z,5.13
2022-12-23T14:23:41.713Z,5.07
2022-12-23T14:26:27.259Z,5.00
2022-12-23T14:29:19.005Z,5.90
2022-12-23T14:31:47.842Z,5.25
2022-12-23T14:34:28.245Z,5.38
2022-12-23T14:37:16.937Z,5.10
2022-12-23T14:39:44.990Z,5.28
2022-12-23T14:42:16.541Z,5.32
2022-12-23T14:44:50.308Z,4.90
2022-12-23T14:47:34.256Z,5.28
2022-12-23T14:50:37.058Z,5.20
2022-12-23T14:53:16.757Z,5.13
2022-12-23T14:55:48.746Z,5.55
2022-12-23T14:58:38.879Z,5.38
2022-12-23T15:01:10.904Z,4.85
2022-12-23T15:03:42.625Z,5.65
2022-12-23T15:06:15.169Z,5.22
2022-12-23T15:08:44.395Z,5.80
2022-12-23T15:11:18.906Z,5.50
2022-12-23T15:13:46.807Z,5.20
2022-12-23T15:16:16.863Z,5.20
2022-12-23T15:18:54.033Z,5.95
2022-12-23T15:21:21.880Z,5.70
2022-12-23T15:23:51.438Z,5.53
2022-12-23T15:26:27.376Z,5.53
2022-12-23T15:28:55.209Z,5.90
2022-12-23T15:31:29.729Z,5.32
2022-12-23T15:34:03.765Z,5.00
2022-12-23T15:36:36.147Z,4.97
2022-12-23T15:39:09.560Z,5.47
2022-12-23T15:41:44.154Z,4.95
2022-12-23T15:44:13.947Z,5.10
2022-12-23T15:46:42.047Z,5.00
2022-12-23T15:49:10.785Z,5.00
2022-12-23T15:52:06.404Z,5.22
2022-12-23T15:54:31.556Z,4.78
2022-12-23T15:57:00.027Z,4.95
2022-12-23T15:59:29.112Z,5.43
2022-12-23T16:01:58.821Z,5.40
2022-12-23T16:04:28.287Z,4.88
2022-12-23T16:06:56.385Z,4.75
2022-12-23T16:09:29.772Z,5.03
2022-12-23T16:12:00.491Z,4.70
2022-12-23T16:14:36.453Z,4.78
2022-12-23T16:17:18.288Z,5.00
2022-12-23T16:19:47.089Z,5.18
2022-12-23T16:22:27.744Z,5.43
2022-12-23T16:25:02.029Z,5.45
2022-12-23T16:27:38.509Z,4.63
2022-12-23T16:30:12.090Z,5.03
2022-12-23T16:32:49.085Z,5.68
2022-12-23T16:35:38.067Z,5.20
2022-12-23T16:38:19.149Z,4.90
2022-12-23T16:40:48.535Z,5.05
2022-12-23T16:43:17.981Z,5.18
2022-12-23T16:45:46.234Z,5.20
2022-12-23T16:48:19.617Z,5.30
2022-12-23T16:50:47.556Z,5.18
2022-12-23T16:53:15.633Z,4.53
2022-12-23T16:55:51.196Z,5.35
2022-12-23T16:58:24.397Z,5.30
2022-12-23T17:00:52.427Z,5.45
2022-12-23T17:03:21.575Z,5.85
2022-12-23T17:05:50.206Z,6.05
2022-12-23T17:08:18.172Z,5.53
2022-12-23T17:10:46.172Z,5.68
2022-12-23T17:13:15.670Z,6.28
2022-12-23T17:15:44.973Z,5.60
2022-12-23T17:18:13.644Z,5.85
2022-12-23T17:20:41.533Z,5.60
2022-12-23T17:23:24.678Z,5.85
2022-12-23T17:25:52.879Z,5.45
2022-12-23T17:28:20.853Z,5.60
2022-12-23T17:30:50.354Z,5.00
2022-12-23T17:33:19.307Z,5.50
2022-12-23T17:35:48.058Z,5.30
2022-12-23T17:38:16.784Z,5.80
2022-12-23T17:40:45.166Z,5.28
2022-12-23T17:43:13.598Z,5.57
2022-12-23T17:45:41.587Z,5.20
2022-12-23T17:48:16.321Z,5.18
2022-12-23T17:50:47.963Z,5.00
2022-12-23T17:53:16.035Z,5.22
2022-12-23T17:55:44.003Z,5.10
2022-12-23T17:58:11.894Z,5.05
2022-12-23T18:00:39.774Z,5.22
2022-12-23T18:03:07.857Z,4.97
2022-12-23T18:05:37.120Z,5.05
2022-12-23T18:08:05.408Z,4.82
2022-12-23T18:10:37.216Z,5.10
2022-12-23T18:13:06.178Z,5.13
2022-12-23T18:15:35.461Z,4.95
2022-12-23T18:18:03.537Z,5.45
2022-12-23T18:20:31.416Z,5.25
2022-12-23T18:23:01.604Z,5.03
2022-12-23T18:25:29.557Z,5.30
2022-12-23T18:27:57.457Z,4.82
2022-12-23T18:30:25.507Z,4.80
2022-12-23T18:32:53.413Z,4.75
2022-12-23T18:35:29.178Z,4.63
2022-12-23T18:37:57.199Z,5.20
2022-12-23T18:40:32.357Z,4.90
2022-12-23T18:43:00.727Z,5.00
2022-12-23T18:45:32.385Z,4.72
2022-12-23T18:48:00.442Z,4.68
2022-12-23T18:50:28.341Z,4.30
2022-12-23T18:52:56.252Z,4.78
2022-12-23T18:55:24.242Z,4.82
2022-12-23T18:57:53.579Z,4.50
2022-12-23T19:00:22.490Z,4.45
2022-12-23T19:02:51.322Z,4.35
2022-12-23T19:05:20.320Z,4.72
2022-12-23T19:07:48.324Z,4.50
2022-12-23T19:10:17.819Z,4.40
2022-12-23T19:12:45.748Z,4.43
2022-12-23T19:15:15.127Z,4.68
2022-12-23T19:17:43.048Z,4.28
2022-12-23T19:20:12.683Z,4.70
2022-12-23T19:22:40.644Z,4.32
2022-12-23T19:25:09.412Z,5.00
2022-12-23T19:27:38.794Z,4.82
2022-12-23T19:30:08.143Z,4.28
2022-12-23T19:32:37.367Z,4.40
2022-12-23T19:35:05.619Z,4.22
2022-12-23T19:37:33.722Z,4.18
2022-12-23T19:40:01.655Z,4.00
2022-12-23T19:42:29.525Z,4.32
2022-12-23T19:44:57.449Z,4.47
2022-12-23T19:47:25.319Z,4.47
2022-12-23T19:49:54.523Z,4.35
2022-12-23T19:52:22.421Z,4.50
2022-12-23T19:54:50.331Z,4.20
2022-12-23T19:57:18.193Z,4.15
2022-12-23T19:59:46.028Z,4.05
2022-12-23T20:02:14.912Z,4.20
2022-12-23T20:04:42.947Z,4.28
2022-12-23T20:07:12.206Z,4.10
2022-12-23T20:09:40.032Z,3.97
2022-12-23T20:12:08.105Z,4.18
2022-12-23T20:14:35.961Z,4.25
2022-12-23T20:17:03.899Z,4.15
2022-12-23T20:19:31.729Z,4.03
2022-12-23T20:21:59.680Z,4.22
2022-12-23T20:24:29.108Z,4.32
2022-12-23T20:26:57.954Z,4.25
2022-12-23T20:29:25.867Z,4.28
2022-12-23T20:31:53.721Z,4.30
2022-12-23T20:34:21.576Z,4.25
2022-12-23T20:36:49.674Z,4.53
2022-12-23T20:39:17.578Z,4.07
2022-12-23T20:41:46.844Z,4.00
2022-12-23T20:47:02.633Z,4.40
2022-12-23T20:49:30.688Z,4.20
2022-12-23T20:51:58.537Z,4.40
2022-12-23T20:54:32.078Z,4.25
2022-12-23T20:57:02.505Z,4.05
2022-12-23T20:59:30.441Z,4.00
2022-12-23T21:01:59.378Z,4.05
2022-12-23T21:04:27.507Z,4.60
2022-12-23T21:06:55.433Z,4.60
2022-12-23T21:09:23.277Z,4.28
2022-12-23T21:11:51.159Z,4.40
2022-12-23T21:14:20.344Z,4.57
2022-12-23T21:16:48.371Z,4.30
2022-12-23T21:19:17.409Z,4.18
2022-12-23T21:21:45.443Z,4.35
2022-12-23T21:24:13.392Z,4.28
2022-12-23T21:26:41.290Z,4.40
2022-12-23T21:29:10.102Z,4.65
2022-12-23T21:31:40.463Z,4.85
2022-12-23T21:34:08.638Z,4.55
2022-12-23T21:36:41.137Z,4.53
2022-12-23T21:39:09.468Z,5.22
2022-12-23T21:41:38.134Z,4.60
2022-12-23T21:44:06.347Z,4.57
2022-12-23T21:46:34.329Z,4.47
2022-12-23T21:49:03.567Z,4.30
2022-12-23T21:51:39.640Z,4.32
2022-12-23T21:54:09.021Z,4.47
2022-12-23T21:56:37.050Z,4.65
2022-12-23T21:59:05.855Z,4.88
2022-12-23T22:01:33.832Z,4.30
2022-12-23T22:04:03.123Z,4.15
2022-12-23T22:06:32.067Z,4.40
2022-12-23T22:09:00.175Z,4.50
2022-12-23T22:11:28.845Z,4.57
2022-12-23T22:13:56.791Z,4.63
2022-12-23T22:16:25.755Z,4.35
2022-12-23T22:18:53.843Z,4.72
2022-12-23T22:21:23.848Z,4.30
2022-12-23T22:23:53.920Z,4.40
2022-12-23T22:26:25.731Z,4.28
2022-12-23T22:28:54.884Z,4.95
2022-12-23T22:31:25.674Z,4.13
2022-12-23T22:33:53.668Z,5.28
2022-12-23T22:36:22.907Z,4.50
2022-12-23T22:38:52.636Z,4.60
2022-12-23T22:41:20.655Z,4.18
2022-12-23T22:43:48.572Z,4.10
2022-12-23T22:46:16.832Z,4.93
2022-12-23T22:48:44.875Z,4.63
2022-12-23T22:51:18.819Z,4.60
2022-12-23T22:53:48.042Z,5.15
2022-12-23T22:56:16.751Z,4.47
2022-12-23T22:58:44.644Z,4.45
2022-12-23T23:01:19.923Z,4.65
2022-12-23T23:03:47.833Z,4.65
2022-12-23T23:06:15.730Z,4.70
2022-12-23T23:08:43.618Z,4.53
2022-12-23T23:11:12.816Z,4.70
2022-12-23T23:13:40.844Z,4.70
2022-12-23T23:16:08.933Z,4.90
2022-12-23T23:18:39.303Z,4.30
2022-12-23T23:21:07.339Z,4.55
2022-12-23T23:23:35.163Z,4.65
2022-12-23T23:26:03.402Z,4.82
2022-12-23T23:28:32.637Z,4.50
2022-12-23T23:31:32.010Z,4.68
2022-12-23T23:33:48.336Z,4.78
2022-12-23T23:36:16.253Z,4.78
2022-12-23T23:38:44.227Z,4.55
2022-12-23T23:41:14.960Z,4.80
2022-12-23T23:43:46.640Z,5.00
2022-12-23T23:46:14.824Z,4.60
2022-12-23T23:48:42.736Z,5.00
2022-12-23T23:51:10.585Z,5.20
2022-12-23T23:53:38.468Z,4.85
2022-12-23T23:56:07.317Z,4.30
2022-12-23T23:58:35.244Z,4.60
